Time;durP1;ratioP1;P1;durP2;ratioP2;P2;SDS_P1;SDS_P2;PMS_P1;PMS_P2;Temp;Humidity;BMP_temperature;BMP_pressure;BME280_temperature;BME280_humidity;BME280_pressure;Samples;Min_cycle;Max_cycle;Signal;HPM_P1;HPM_P2
2022/05/21 00:00:45;;;;;;;;;;;;;;;24.02;57.47;99476.44;2078191;28;19964;-47
2022/05/21 00:01:46;;;;;;;;;;;;;;;24.04;57.80;99471.63;2077713;28;19929;-47
2022/05/21 00:02:47;;;;;;;;;;;;;;;24.04;57.80;99471.63;2078548;28;19925;-47
2022/05/21 00:03:49;;;;;;;;;;;;;;;24.04;57.55;99474.34;2077897;28;19968;-48
2022/05/21 00:04:50;;;;;;;;;;;;;;;24.04;57.72;99473.50;2078684;28;19932;-46
2022/05/21 00:05:51;;;;;;;;;;;;;;;24.05;57.73;99477.88;2076777;28;19929;-48
2022/05/21 00:06:53;;;;;;;;;;;;;;;24.03;57.83;99469.94;2078465;28;20032;-47
2022/05/21 00:07:53;;;;;;;;;;;;;;;24.05;57.56;99469.75;2077392;28;19925;-48
2022/05/21 00:08:55;;;;;;;;;;;;;;;24.05;57.79;99469.75;2078899;28;20809;-47
2022/05/21 00:09:55;;;;;;;;;;;;;;;24.05;57.88;99469.75;2077314;28;20622;-47
2022/05/21 00:10:57;;;;;;;;;;;;;;;24.03;57.73;99477.25;2078465;28;19929;-48
2022/05/21 00:11:57;;;;;;;;;;;;;;;24.02;57.74;99475.59;2079742;28;19929;-49
2022/05/21 00:13:01;;;;;;;;;;;;;;;24.03;57.69;99477.25;2078921;28;19929;-47
2022/05/21 00:14:02;;;;;;;;;;;;;;;24.01;57.48;99474.75;2080031;28;20002;-48
2022/05/21 00:15:03;;;;;;;;;;;;;;;24.02;57.89;99470.19;2077173;28;19925;-47
2022/05/21 00:16:05;;;;;;;;;;;;;;;24.01;57.77;99473.94;2077351;28;19936;-48
2022/05/21 00:17:07;;;;;;;;;;;;;;;24.00;57.61;99473.09;2076727;28;19925;-48
2022/05/21 00:18:07;;;;;;;;;;;;;;;24.00;57.99;99477.69;2076657;28;19940;-47
2022/05/21 00:19:09;;;;;;;;;;;;;;;24.02;57.62;99470.19;2078236;28;19925;-47
2022/05/21 00:20:47;;;;;;;;;;;;;;;24.01;57.88;99474.75;2078035;28;19983;-47
2022/05/21 00:21:31;;;;;;;;;;;;;;;24.01;57.55;99466.63;2078059;28;19925;-51
2022/05/21 00:22:32;;;;;;;;;;;;;;;24.01;57.63;99473.94;2078666;28;19929;-48
2022/05/21 00:23:34;;;;;;;;;;;;;;;24.00;57.86;99469.56;2077177;28;19972;-51
2022/05/21 00:24:35;;;;;;;;;;;;;;;24.00;57.92;99467.69;2078208;28;20303;-47
2022/05/21 00:25:36;;;;;;;;;;;;;;;24.00;57.59;99464.97;2077891;28;19925;-48
2022/05/21 00:26:38;;;;;;;;;;;;;;;24.00;58.00;99472.28;2078676;28;19983;-47
2022/05/21 00:27:38;;;;;;;;;;;;;;;24.00;57.99;99472.28;2076983;28;19967;-47
2022/05/21 00:28:42;;;;;;;;;;;;;;;24.00;57.58;99472.28;2077883;28;19925;-47
2022/05/21 00:29:43;;;;;;;;;;;;;;;23.99;57.73;99466.03;2077893;28;19925;-47
2022/05/21 00:30:45;;;;;;;;;;;;;;;24.01;57.61;99463.09;2078924;28;19978;-49
2022/05/21 00:31:47;;;;;;;;;;;;;;;24.00;57.91;99470.41;2077739;28;19997;-47
2022/05/21 00:32:47;;;;;;;;;;;;;;;24.00;57.69;99466.88;2077855;28;19929;-47
2022/05/21 00:33:49;;;;;;;;;;;;;;;23.99;57.70;99460.63;2077289;28;20516;-49
2022/05/21 00:34:50;;;;;;;;;;;;;;;24.00;57.80;99458.72;2079164;28;19936;-49
2022/05/21 00:35:52;;;;;;;;;;;;;;;23.99;57.81;99457.09;2077812;28;19925;-51
2022/05/21 00:36:53;;;;;;;;;;;;;;;23.98;57.85;99456.22;2077423;28;19940;-47
2022/05/21 00:37:54;;;;;;;;;;;;;;;23.99;57.85;99459.78;2077235;28;19925;-48
2022/05/21 00:38:56;;;;;;;;;;;;;;;23.99;57.89;99460.63;2078400;28;20490;-47
2022/05/21 00:39:56;;;;;;;;;;;;;;;23.98;57.87;99458.94;2077603;28;19979;-48
2022/05/21 00:40:58;;;;;;;;;;;;;;;23.97;57.90;99451.88;2079412;28;20520;-47
2022/05/21 00:42:03;;;;;;;;;;;;;;;24.00;57.64;99453.31;2076223;28;19929;-46
2022/05/21 00:43:05;;;;;;;;;;;;;;;23.98;57.86;99452.69;2077982;28;20520;-48
2022/05/21 00:44:09;;;;;;;;;;;;;;;23.98;57.75;99452.69;2078338;28;19967;-46
2022/05/21 00:45:09;;;;;;;;;;;;;;;23.97;57.65;99451.03;2079825;28;20117;-47
2022/05/21 00:46:12;;;;;;;;;;;;;;;23.98;58.02;99453.50;2077780;28;20024;-47
2022/05/21 00:47:14;;;;;;;;;;;;;;;23.98;57.82;99452.69;2078606;28;19929;-48
2022/05/21 00:48:14;;;;;;;;;;;;;;;23.98;57.90;99444.56;2077110;28;20311;-48
2022/05/21 00:49:17;;;;;;;;;;;;;;;23.98;57.77;99452.69;2076048;28;19933;-47
2022/05/21 00:50:20;;;;;;;;;;;;;;;23.98;57.86;99441.84;2077793;28;20576;-48
2022/05/21 00:51:25;;;;;;;;;;;;;;;23.98;57.86;99444.56;2078592;28;19979;-48
2022/05/21 00:52:27;;;;;;;;;;;;;;;23.98;57.63;99444.56;2078370;28;19932;-48
2022/05/21 00:53:29;;;;;;;;;;;;;;;23.98;57.83;99441.84;2078625;28;19929;-46
2022/05/21 00:54:33;;;;;;;;;;;;;;;23.97;58.02;99434.78;2078337;28;20537;-49
2022/05/21 00:55:34;;;;;;;;;;;;;;;23.97;57.89;99434.78;2077888;28;20037;-47
2022/05/21 00:56:37;;;;;;;;;;;;;;;23.96;57.74;99435.81;2078677;28;19948;-48
2022/05/21 00:57:40;;;;;;;;;;;;;;;23.97;57.72;99434.78;2077255;28;19933;-47
2022/05/21 01:00:05;;;;;;;;;;;;;;;23.96;57.94;99428.53;2079445;28;19929;-48
2022/05/21 01:01:06;;;;;;;;;;;;;;;23.96;57.78;99431.25;2078773;28;19964;-47
2022/05/21 01:02:07;;;;;;;;;;;;;;;23.97;57.67;99429.38;2077487;28;19964;-47
2022/05/21 01:03:10;;;;;;;;;;;;;;;23.97;57.86;99421.25;2078357;28;19925;-47
2022/05/21 01:04:10;;;;;;;;;;;;;;;23.98;57.71;99425.59;2077490;28;19990;-47
2022/05/21 01:05:14;;;;;;;;;;;;;;;23.96;57.64;99425.84;2077532;28;19932;-47
2022/05/21 01:06:15;;;;;;;;;;;;;;;23.95;57.84;99420.63;2078772;28;19963;-47
2022/05/21 01:07:18;;;;;;;;;;;;;;;23.97;57.98;99418.53;2076448;28;19933;-48
2022/05/21 01:08:19;;;;;;;;;;;;;;;23.96;57.81;99415.00;2076819;28;19925;-47
2022/05/21 01:09:20;;;;;;;;;;;;;;;23.97;57.96;99418.53;2077716;28;19929;-48
2022/05/21 01:10:22;;;;;;;;;;;;;;;23.96;57.98;99422.28;2076894;28;19926;-49
2022/05/21 01:11:23;;;;;;;;;;;;;;;23.95;57.66;99415.19;2079305;28;19939;-47
2022/05/21 01:12:25;;;;;;;;;;;;;;;23.94;58.01;99414.38;2077289;28;19940;-47
2022/05/21 01:13:29;;;;;;;;;;;;;;;23.96;57.71;99416.84;2078143;28;20636;-47
2022/05/21 01:14:30;;;;;;;;;;;;;;;23.95;57.82;99417.91;2079746;28;19925;-47
2022/05/21 01:15:34;;;;;;;;;;;;;;;23.95;57.84;99412.50;2078527;28;20017;-47
2022/05/21 01:16:35;;;;;;;;;;;;;;;23.95;57.54;99412.50;2073670;28;20958;-49
2022/05/21 01:17:36;;;;;;;;;;;;;;;23.97;57.71;99418.53;2075321;28;19929;-49
2022/05/21 01:18:37;;;;;;;;;;;;;;;23.96;57.83;99416.84;2077095;28;19929;-47
2022/05/21 01:19:53;;;;;;;;;;;;;;;23.95;57.83;99410.59;2078576;28;19925;-47
2022/05/21 01:20:55;;;;;;;;;;;;;;;23.95;57.69;99407.06;2077175;28;20559;-49
2022/05/21 01:21:58;;;;;;;;;;;;;;;23.96;57.79;99408.72;2076048;28;19925;-48
2022/05/21 01:23:00;;;;;;;;;;;;;;;23.94;57.63;99408.97;2076164;28;20528;-48
2022/05/21 01:24:02;;;;;;;;;;;;;;;23.94;57.90;99406.25;2079444;28;19933;-47
2022/05/21 01:25:02;;;;;;;;;;;;;;;23.94;57.89;99405.44;2077908;28;19965;-48
2022/05/21 01:26:05;;;;;;;;;;;;;;;23.94;57.81;99403.53;2076338;28;19929;-47
2022/05/21 01:27:06;;;;;;;;;;;;;;;23.94;57.85;99400.84;2078542;28;19925;-47
2022/05/21 01:28:09;;;;;;;;;;;;;;;23.95;57.73;99398.94;2078870;28;20302;-47
2022/05/21 01:29:11;;;;;;;;;;;;;;;23.94;57.68;99400.00;2078682;28;19979;-49
2022/05/21 01:30:15;;;;;;;;;;;;;;;23.94;57.77;99397.28;2077091;28;20052;-47
2022/05/21 01:31:15;;;;;;;;;;;;;;;23.94;58.03;99392.69;2079167;28;20419;-47
2022/05/21 01:32:18;;;;;;;;;;;;;;;23.94;57.74;99392.69;2077914;28;19929;-48
2022/05/21 01:33:19;;;;;;;;;;;;;;;23.95;57.91;99398.94;2077850;28;20006;-48
2022/05/21 01:34:21;;;;;;;;;;;;;;;23.96;57.81;99400.59;2078200;28;20441;-47
2022/05/21 01:35:22;;;;;;;;;;;;;;;23.95;57.79;99396.25;2077214;28;19936;-47
2022/05/21 01:36:23;;;;;;;;;;;;;;;23.94;57.91;99392.69;2077525;28;19925;-48
2022/05/21 01:37:24;;;;;;;;;;;;;;;23.95;57.63;99388.09;2078366;28;23203;-47
2022/05/21 01:38:28;;;;;;;;;;;;;;;23.95;57.79;99393.53;2077080;28;20029;-47
2022/05/21 01:39:29;;;;;;;;;;;;;;;23.95;57.80;99391.63;2075554;28;19929;-52
2022/05/21 01:40:31;;;;;;;;;;;;;;;23.93;57.63;99396.47;2077979;28;19925;-48
2022/05/21 01:41:31;;;;;;;;;;;;;;;23.94;57.70;99391.88;2077795;28;19959;-48
2022/05/21 01:42:33;;;;;;;;;;;;;;;23.95;57.71;99388.09;2078618;28;20270;-48
2022/05/21 01:44:52;;;;;;;;;;;;;;;23.96;57.55;99390.63;2077884;28;20673;-48
2022/05/21 01:45:53;;;;;;;;;;;;;;;23.95;57.85;99383.50;2077587;28;19929;-47
2022/05/21 01:46:54;;;;;;;;;;;;;;;23.94;57.77;99389.16;2079479;28;19979;-49
2022/05/21 01:47:55;;;;;;;;;;;;;;;23.95;57.65;99386.22;2075919;28;19933;-47
2022/05/21 01:48:56;;;;;;;;;;;;;;;23.94;57.86;99381.03;2078413;28;19956;-49
2022/05/21 01:49:58;;;;;;;;;;;;;;;23.94;57.77;99383.75;2079375;28;19983;-48
2022/05/21 01:50:59;;;;;;;;;;;;;;;23.95;57.49;99380.81;2078511;28;19947;-51
2022/05/21 01:52:00;;;;;;;;;;;;;;;23.94;57.91;99375.63;2076365;28;19933;-47
2022/05/21 01:53:02;;;;;;;;;;;;;;;23.94;57.90;99379.16;2077944;28;20036;-48
2022/05/21 01:54:04;;;;;;;;;;;;;;;23.94;57.84;99381.03;2078565;28;20533;-48
2022/05/21 01:55:06;;;;;;;;;;;;;;;23.94;57.74;99386.47;2078712;28;19975;-47
2022/05/21 01:56:07;;;;;;;;;;;;;;;23.95;57.76;99382.69;2076624;28;19944;-46
2022/05/21 01:57:10;;;;;;;;;;;;;;;23.94;57.78;99383.75;2077620;28;19975;-48
2022/05/21 01:58:10;;;;;;;;;;;;;;;23.94;57.72;99381.88;2077092;28;20477;-45
2022/05/21 01:59:12;;;;;;;;;;;;;;;23.95;57.73;99377.28;2076153;28;19941;-47
2022/05/21 02:00:13;;;;;;;;;;;;;;;23.94;57.79;99378.34;2079235;28;19960;-47
2022/05/21 02:01:15;;;;;;;;;;;;;;;23.93;57.79;99379.34;2079067;28;19967;-48
2022/05/21 02:02:16;;;;;;;;;;;;;;;23.93;57.92;99373.94;2079131;28;19936;-46
2022/05/21 02:03:18;;;;;;;;;;;;;;;23.93;57.96;99379.34;2078962;28;19929;-48
2022/05/21 02:04:20;;;;;;;;;;;;;;;23.93;58.02;99373.94;2077616;28;19929;-46
2022/05/21 02:05:20;;;;;;;;;;;;;;;23.94;57.77;99376.44;2077346;28;19925;-48
2022/05/21 02:06:22;;;;;;;;;;;;;;;23.94;57.91;99379.16;2076399;28;19929;-49
2022/05/21 02:07:22;;;;;;;;;;;;;;;23.93;57.70;99373.94;2078050;28;19932;-48
2022/05/21 02:08:24;;;;;;;;;;;;;;;23.93;57.87;99379.34;2076750;28;20344;-47
2022/05/21 02:09:26;;;;;;;;;;;;;;;23.92;57.88;99375.81;2077857;28;19933;-47
2022/05/21 02:10:27;;;;;;;;;;;;;;;23.92;57.84;99372.28;2078033;28;19970;-47
2022/05/21 02:11:28;;;;;;;;;;;;;;;23.92;57.71;99372.28;2077551;28;20395;-49
2022/05/21 02:12:30;;;;;;;;;;;;;;;23.93;57.85;99368.53;2076686;28;19925;-45
2022/05/21 02:13:31;;;;;;;;;;;;;;;23.92;57.85;99372.28;2077885;28;19925;-48
2022/05/21 02:14:33;;;;;;;;;;;;;;;23.92;57.92;99378.53;2078955;28;19955;-48
2022/05/21 02:15:33;;;;;;;;;;;;;;;23.92;58.00;99370.41;2078507;28;19929;-47
2022/05/21 02:16:36;;;;;;;;;;;;;;;23.92;57.90;99369.59;2077531;28;19929;-48
2022/05/21 02:17:37;;;;;;;;;;;;;;;23.92;58.11;99369.59;2075099;28;19944;-45
2022/05/21 02:18:38;;;;;;;;;;;;;;;23.93;58.07;99373.94;2078072;28;20306;-47
2022/05/21 02:19:39;;;;;;;;;;;;;;;23.92;58.24;99369.59;2077018;28;19976;-47
2022/05/21 02:20:41;;;;;;;;;;;;;;;23.91;57.77;99370.66;2078057;28;20435;-49
2022/05/21 02:21:42;;;;;;;;;;;;;;;23.91;58.17;99370.66;2076610;28;19927;-48
2022/05/21 02:22:43;;;;;;;;;;;;;;;23.91;58.11;99371.47;2077637;28;19931;-47
2022/05/21 02:23:45;;;;;;;;;;;;;;;23.90;58.20;99367.09;2076962;28;20565;-47
2022/05/21 02:24:47;;;;;;;;;;;;;;;23.89;58.17;99367.31;2078920;28;20396;-48
2022/05/21 02:25:48;;;;;;;;;;;;;;;23.90;57.96;99366.25;2077931;28;19964;-48
2022/05/21 02:26:49;;;;;;;;;;;;;;;23.90;58.01;99368.97;2078204;28;19925;-47
2022/05/21 02:27:50;;;;;;;;;;;;;;;23.91;58.18;99365.22;2075212;28;20287;-47
2022/05/21 02:28:51;;;;;;;;;;;;;;;23.90;57.96;99363.53;2077709;28;20553;-47
2022/05/21 02:29:53;;;;;;;;;;;;;;;23.90;57.94;99358.13;2077386;28;20697;-47
2022/05/21 02:30:54;;;;;;;;;;;;;;;23.90;58.12;99358.97;2078356;28;19924;-45
2022/05/21 02:31:55;;;;;;;;;;;;;;;23.91;57.99;99359.81;2076920;28;19925;-46
2022/05/21 02:32:56;;;;;;;;;;;;;;;23.90;58.17;99360.84;2077206;28;19937;-45
2022/05/21 02:33:57;;;;;;;;;;;;;;;23.90;58.17;99356.25;2077719;28;19929;-48
2022/05/21 02:34:58;;;;;;;;;;;;;;;23.90;58.13;99360.84;2078552;28;20323;-45
2022/05/21 02:35:59;;;;;;;;;;;;;;;23.89;58.12;99362.72;2076900;28;19935;-45
2022/05/21 02:39:38;;;;;;;;;;;;;;;23.89;57.89;99362.72;2078142;28;20441;-46
2022/05/21 02:40:41;;;;;;;;;;;;;;;23.90;57.90;99358.13;2078057;28;19929;-48
2022/05/21 02:41:41;;;;;;;;;;;;;;;23.89;58.12;99359.19;2076243;28;19932;-48
2022/05/21 02:42:46;;;;;;;;;;;;;;;23.89;58.05;99360.00;2078408;28;19939;-49
2022/05/21 02:43:48;;;;;;;;;;;;;;;23.89;58.13;99361.91;2076602;28;19925;-48
2022/05/21 02:44:49;;;;;;;;;;;;;;;23.90;58.12;99358.13;2077875;28;19928;-46
2022/05/21 02:45:50;;;;;;;;;;;;;;;23.89;58.16;99354.59;2077736;28;20567;-51
2022/05/21 02:46:51;;;;;;;;;;;;;;;23.87;58.06;99353.97;2077897;28;19925;-50
2022/05/21 02:47:53;;;;;;;;;;;;;;;23.88;58.00;99354.84;2079014;28;20376;-46
2022/05/21 02:48:53;;;;;;;;;;;;;;;23.88;58.07;99354.84;2078566;28;19925;-47
2022/05/21 02:49:55;;;;;;;;;;;;;;;23.88;58.17;99357.53;2079366;28;19929;-49
2022/05/21 02:50:56;;;;;;;;;;;;;;;23.89;58.20;99361.91;2079118;28;19925;-49
2022/05/21 02:51:57;;;;;;;;;;;;;;;23.89;58.14;99351.06;2079754;28;19956;-50
2022/05/21 02:52:58;;;;;;;;;;;;;;;23.89;58.10;99351.88;2078941;28;20015;-46
2022/05/21 02:53:59;;;;;;;;;;;;;;;23.88;58.23;99346.72;2079469;28;20379;-48
2022/05/21 02:55:00;;;;;;;;;;;;;;;23.88;58.43;99352.13;2079439;28;19971;-45
2022/05/21 02:56:05;;;;;;;;;;;;;;;23.88;58.12;99349.41;2078655;28;19933;-49
2022/05/21 02:57:08;;;;;;;;;;;;;;;23.88;58.15;99341.28;2079101;28;19925;-49
2022/05/21 02:58:10;;;;;;;;;;;;;;;23.86;58.16;99347.75;2079334;28;20383;-48
2022/05/21 02:59:11;;;;;;;;;;;;;;;23.86;58.13;99342.31;2078983;28;19932;-48
2022/05/21 03:00:14;;;;;;;;;;;;;;;23.87;58.11;99353.97;2079412;28;19925;-45
2022/05/21 03:01:15;;;;;;;;;;;;;;;23.86;58.19;99342.31;2079453;28;19924;-50
2022/05/21 03:02:16;;;;;;;;;;;;;;;23.87;58.14;99343.16;2078685;28;20423;-47
2022/05/21 03:03:17;;;;;;;;;;;;;;;23.87;58.21;99345.84;2079555;28;19929;-51
2022/05/21 03:04:19;;;;;;;;;;;;;;;23.88;58.04;99344.00;2079231;28;19991;-46
2022/05/21 03:05:19;;;;;;;;;;;;;;;23.87;58.31;99348.56;2079571;28;20416;-50
2022/05/21 03:06:21;;;;;;;;;;;;;;;23.88;58.41;99346.72;2080532;28;20011;-46
2022/05/21 03:07:21;;;;;;;;;;;;;;;23.87;58.20;99340.44;2079701;28;20387;-48
2022/05/21 03:11:01;;;;;;;;;;;;;;;23.86;58.12;99342.31;2079085;28;19925;-49
2022/05/21 03:12:03;;;;;;;;;;;;;;;23.88;58.08;99338.59;2079125;28;19926;-49
2022/05/21 03:13:05;;;;;;;;;;;;;;;23.85;58.23;99343.38;2077551;28;19932;-45
2022/05/21 03:14:05;;;;;;;;;;;;;;;23.86;58.17;99345.03;2078882;28;19972;-46
2022/05/21 03:15:08;;;;;;;;;;;;;;;23.85;58.21;99340.66;2077857;28;19926;-50
2022/05/21 03:16:10;;;;;;;;;;;;;;;23.85;58.24;99340.66;2078710;28;19976;-47
2022/05/21 03:17:12;;;;;;;;;;;;;;;23.85;58.43;99337.97;2078925;28;20011;-46
2022/05/21 03:18:14;;;;;;;;;;;;;;;23.85;58.28;99346.09;2077344;28;20558;-47
2022/05/21 03:19:14;;;;;;;;;;;;;;;23.86;58.13;99341.50;2078895;28;19925;-46
2022/05/21 03:20:17;;;;;;;;;;;;;;;23.85;58.30;99335.25;2078889;28;19964;-48
2022/05/21 03:21:18;;;;;;;;;;;;;;;23.86;58.22;99341.50;2076490;28;19965;-48
2022/05/21 03:22:19;;;;;;;;;;;;;;;23.85;58.15;99343.38;2077209;28;20374;-48
2022/05/21 03:23:20;;;;;;;;;;;;;;;23.84;58.38;99333.56;2078507;28;19929;-48
2022/05/21 03:24:21;;;;;;;;;;;;;;;23.85;58.06;99335.25;2078209;28;19936;-47
2022/05/21 03:25:23;;;;;;;;;;;;;;;23.85;58.21;99340.66;2080863;28;20279;-47
2022/05/21 03:26:24;;;;;;;;;;;;;;;23.84;57.98;99335.47;2080104;28;19933;-45
2022/05/21 03:27:27;;;;;;;;;;;;;;;23.84;58.03;99338.16;2079002;28;19933;-48
2022/05/21 03:28:28;;;;;;;;;;;;;;;23.83;57.98;99342.75;2080400;28;19940;-48
2022/05/21 03:29:29;;;;;;;;;;;;;;;23.85;58.32;99345.28;2079815;28;20457;-46
2022/05/21 03:30:31;;;;;;;;;;;;;;;23.84;58.21;99341.72;2079484;28;19929;-45
2022/05/21 03:31:32;;;;;;;;;;;;;;;23.84;58.33;99344.41;2080540;28;20558;-49
2022/05/21 03:32:34;;;;;;;;;;;;;;;23.84;58.06;99343.59;2078595;28;19983;-47
2022/05/21 03:33:34;;;;;;;;;;;;;;;23.84;58.26;99343.59;2078435;28;20664;-50
2022/05/21 03:34:37;;;;;;;;;;;;;;;23.84;58.32;99347.13;2080414;28;19925;-47
2022/05/21 03:35:40;;;;;;;;;;;;;;;23.84;58.14;99339.00;2077375;28;19929;-48
2022/05/21 03:36:42;;;;;;;;;;;;;;;23.83;58.19;99333.81;2079405;28;19932;-48
2022/05/21 03:37:43;;;;;;;;;;;;;;;23.83;58.16;99331.09;2077662;28;19929;-48
2022/05/21 03:38:45;;;;;;;;;;;;;;;23.83;58.14;99337.34;2078872;28;19939;-48
2022/05/21 03:39:45;;;;;;;;;;;;;;;23.82;58.27;99340.25;2079460;28;19976;-48
2022/05/21 03:40:47;;;;;;;;;;;;;;;23.83;58.48;99342.75;2080501;28;19929;-47
2022/05/21 03:41:48;;;;;;;;;;;;;;;23.82;58.11;99340.25;2077948;28;20452;-47
2022/05/21 03:42:51;;;;;;;;;;;;;;;23.82;58.17;99340.25;2078145;28;19933;-48
2022/05/21 03:43:52;;;;;;;;;;;;;;;23.82;58.25;99338.41;2078196;28;20841;-51
2022/05/21 03:44:53;;;;;;;;;;;;;;;23.82;58.40;99345.69;2078915;28;19933;-47
2022/05/21 03:45:55;;;;;;;;;;;;;;;23.83;58.30;99347.38;2079445;28;19948;-49
2022/05/21 03:46:58;;;;;;;;;;;;;;;23.82;58.35;99338.41;2079465;28;19935;-49
2022/05/21 03:47:59;;;;;;;;;;;;;;;23.81;58.29;99338.63;2078905;28;19944;-46
2022/05/21 03:49:01;;;;;;;;;;;;;;;23.81;58.32;99336.72;2077795;28;19924;-51
2022/05/21 03:50:01;;;;;;;;;;;;;;;23.82;58.31;99340.25;2078327;28;20279;-47
2022/05/21 03:51:03;;;;;;;;;;;;;;;23.82;58.17;99349.25;2079161;28;19933;-51
2022/05/21 03:52:06;;;;;;;;;;;;;;;23.81;58.40;99344.03;2078020;28;20971;-45
2022/05/21 03:53:09;;;;;;;;;;;;;;;23.81;58.31;99341.31;2078058;28;19928;-47
2022/05/21 03:54:09;;;;;;;;;;;;;;;23.81;58.07;99342.16;2079256;28;20375;-48
2022/05/21 03:55:11;;;;;;;;;;;;;;;23.81;58.21;99339.44;2079324;28;19934;-45
2022/05/21 03:56:12;;;;;;;;;;;;;;;23.81;58.23;99344.03;2079482;28;19929;-45
2022/05/21 03:57:15;;;;;;;;;;;;;;;23.80;58.46;99343.22;2079458;28;20007;-48
2022/05/21 03:58:17;;;;;;;;;;;;;;;23.80;58.58;99337.78;2078273;28;19937;-46
2022/05/21 03:59:19;;;;;;;;;;;;;;;23.79;58.63;99338.84;2078486;28;19940;-46
2022/05/21 04:00:20;;;;;;;;;;;;;;;23.81;58.37;99333.19;2079198;28;19933;-49
2022/05/21 04:01:22;;;;;;;;;;;;;;;23.80;58.09;99339.69;2078115;28;20391;-46
2022/05/21 04:02:23;;;;;;;;;;;;;;;23.79;58.42;99340.72;2079050;28;19925;-47
2022/05/21 04:03:24;;;;;;;;;;;;;;;23.79;58.46;99338.84;2079433;28;20012;-52
2022/05/21 04:04:25;;;;;;;;;;;;;;;23.79;58.50;99330.72;2078770;28;19932;-49
2022/05/21 04:05:26;;;;;;;;;;;;;;;23.80;58.44;99339.69;2078127;28;20298;-48
2022/05/21 04:06:27;;;;;;;;;;;;;;;23.80;58.54;99335.09;2079222;28;20653;-45
2022/05/21 04:07:29;;;;;;;;;;;;;;;23.79;58.31;99332.59;2080018;28;20020;-47
2022/05/21 04:08:29;;;;;;;;;;;;;;;23.79;58.41;99335.28;2079726;28;19929;-51
2022/05/21 04:09:31;;;;;;;;;;;;;;;23.78;58.26;99337.19;2078809;28;20385;-47
2022/05/21 04:10:31;;;;;;;;;;;;;;;23.78;58.62;99334.47;2078782;28;19925;-49
2022/05/21 04:11:33;;;;;;;;;;;;;;;23.80;58.67;99342.38;2079189;28;19932;-47
2022/05/21 04:12:33;;;;;;;;;;;;;;;23.78;58.75;99337.19;2078982;28;19967;-49
2022/05/21 04:13:36;;;;;;;;;;;;;;;23.78;58.70;99342.59;2079401;28;19925;-45
2022/05/21 04:14:37;;;;;;;;;;;;;;;23.77;58.69;99340.13;2078531;28;20384;-48
2022/05/21 04:15:38;;;;;;;;;;;;;;;23.77;58.45;99343.66;2078799;28;19932;-48
2022/05/21 04:16:39;;;;;;;;;;;;;;;23.78;59.13;99348.00;2078591;28;19960;-46
2022/05/21 04:17:41;;;;;;;;;;;;;;;23.77;58.75;99345.53;2078075;28;19936;-48
2022/05/21 04:18:41;;;;;;;;;;;;;;;23.78;58.71;99339.06;2078145;28;19932;-46
2022/05/21 04:19:43;;;;;;;;;;;;;;;23.77;58.35;99338.25;2079322;28;19942;-55
2022/05/21 04:20:44;;;;;;;;;;;;;;;23.77;58.71;99338.25;2079319;28;19964;-45
2022/05/21 04:21:45;;;;;;;;;;;;;;;23.76;58.51;99339.25;2079203;28;20260;-50
2022/05/21 04:22:46;;;;;;;;;;;;;;;23.76;58.49;99335.72;2077917;28;19964;-48
2022/05/21 04:23:47;;;;;;;;;;;;;;;23.77;58.56;99338.25;2078240;28;20303;-48
2022/05/21 04:24:48;;;;;;;;;;;;;;;23.76;58.46;99341.97;2079356;28;19932;-46
2022/05/21 04:25:49;;;;;;;;;;;;;;;23.76;58.94;99336.56;2078425;28;20290;-47
2022/05/21 04:26:50;;;;;;;;;;;;;;;23.75;58.73;99342.22;2078828;28;20307;-45
2022/05/21 04:27:51;;;;;;;;;;;;;;;23.74;58.45;99338.69;2078137;28;20012;-50
2022/05/21 04:28:53;;;;;;;;;;;;;;;23.77;58.42;99340.13;2078209;28;19968;-45
2022/05/21 04:29:55;;;;;;;;;;;;;;;23.77;58.27;99343.66;2078993;28;20383;-48
2022/05/21 04:30:55;;;;;;;;;;;;;;;23.76;59.00;99339.25;2079549;28;19991;-45
2022/05/21 04:31:57;;;;;;;;;;;;;;;23.75;58.71;99340.31;2078974;28;19933;-45
2022/05/21 04:32:58;;;;;;;;;;;;;;;23.77;59.09;99345.53;2079011;28;20263;-46
2022/05/21 04:34:00;;;;;;;;;;;;;;;23.76;58.60;99350.09;2076655;28;20724;-47
2022/05/21 04:35:00;;;;;;;;;;;;;;;23.75;59.03;99343.03;2078464;28;19972;-46
2022/05/21 04:37:19;;;;;;;;;;;;;;;23.75;59.26;99343.03;2074392;28;20311;-47
2022/05/21 04:38:20;;;;;;;;;;;;;;;23.75;58.56;99340.31;2077791;28;20795;-47
2022/05/21 04:39:21;;;;;;;;;;;;;;;23.74;59.09;99337.84;2078164;28;19956;-45
2022/05/21 04:40:22;;;;;;;;;;;;;;;23.73;58.39;99342.41;2078972;28;20319;-45
2022/05/21 04:41:25;;;;;;;;;;;;;;;23.74;58.54;99338.69;2078520;28;19933;-46
2022/05/21 04:42:26;;;;;;;;;;;;;;;23.76;58.72;99341.16;2079085;28;19959;-47
2022/05/21 04:43:27;;;;;;;;;;;;;;;23.75;58.64;99340.31;2077292;28;20399;-45
2022/05/21 04:44:34;;;;;;;;;;;;;;;23.74;58.32;99349.50;2079285;28;19924;-50
2022/05/21 04:45:35;;;;;;;;;;;;;;;23.74;59.04;99345.97;2076966;28;19955;-47
2022/05/21 04:46:36;;;;;;;;;;;;;;;23.74;58.64;99344.09;2078326;28;19929;-47
2022/05/21 04:47:37;;;;;;;;;;;;;;;23.74;58.73;99338.69;2078114;28;19939;-47
2022/05/21 04:48:39;;;;;;;;;;;;;;;23.73;58.90;99339.72;2078315;28;19948;-46
2022/05/21 04:49:40;;;;;;;;;;;;;;;23.73;58.91;99342.41;2078546;28;19979;-47
2022/05/21 04:50:41;;;;;;;;;;;;;;;23.72;59.05;99334.53;2078815;28;19926;-45
2022/05/21 04:51:42;;;;;;;;;;;;;;;23.71;58.99;99333.72;2077890;28;19925;-48
2022/05/21 04:52:43;;;;;;;;;;;;;;;23.73;58.66;99339.72;2077790;28;19929;-46
2022/05/21 04:53:45;;;;;;;;;;;;;;;23.72;58.96;99338.06;2077328;28;19947;-48
2022/05/21 04:54:46;;;;;;;;;;;;;;;23.72;58.85;99335.34;2077827;28;19964;-46
2022/05/21 04:55:47;;;;;;;;;;;;;;;23.73;58.81;99333.47;2078917;28;19932;-47
2022/05/21 04:56:48;;;;;;;;;;;;;;;23.72;59.20;99338.06;2078053;28;19967;-48
2022/05/21 04:57:49;;;;;;;;;;;;;;;23.73;58.58;99331.59;2077980;28;20368;-48
2022/05/21 04:58:50;;;;;;;;;;;;;;;23.71;59.31;99330.16;2079310;28;20028;-50
2022/05/21 04:59:52;;;;;;;;;;;;;;;23.71;58.84;99333.72;2077247;28;19972;-46
2022/05/21 05:00:54;;;;;;;;;;;;;;;23.72;58.79;99329.13;2078861;28;19937;-47
2022/05/21 05:01:56;;;;;;;;;;;;;;;23.72;59.23;99329.13;2079333;28;19929;-48
2022/05/21 05:02:57;;;;;;;;;;;;;;;23.71;58.96;99327.44;2078137;28;20367;-48
2022/05/21 05:03:58;;;;;;;;;;;;;;;23.71;59.12;99324.72;2078989;28;20020;-48
2022/05/21 05:04:59;;;;;;;;;;;;;;;23.70;59.21;99328.47;2078123;28;19966;-46
2022/05/21 05:06:01;;;;;;;;;;;;;;;23.69;59.12;99326.81;2078443;28;20451;-51
2022/05/21 05:07:05;;;;;;;;;;;;;;;23.69;59.33;99324.94;2079257;28;20474;-48
2022/05/21 05:08:07;;;;;;;;;;;;;;;23.71;59.02;99327.44;2077517;28;19936;-51
2022/05/21 05:09:08;;;;;;;;;;;;;;;23.70;58.90;99328.47;2078372;28;19937;-49
2022/05/21 05:10:11;;;;;;;;;;;;;;;23.71;59.20;99328.28;2079548;28;19929;-46
2022/05/21 05:11:11;;;;;;;;;;;;;;;23.69;59.57;99324.94;2079355;28;19929;-47
2022/05/21 05:12:13;;;;;;;;;;;;;;;23.68;59.09;99320.56;2078829;28;19932;-49
2022/05/21 05:13:13;;;;;;;;;;;;;;;23.71;59.26;99322.03;2078412;28;19932;-48
2022/05/21 05:14:15;;;;;;;;;;;;;;;23.69;59.47;99313.28;2077496;28;20059;-47
2022/05/21 05:15:17;;;;;;;;;;;;;;;23.68;59.07;99312.44;2078762;28;20500;-49
2022/05/21 05:16:18;;;;;;;;;;;;;;;23.70;59.02;99314.94;2078768;28;20491;-49
2022/05/21 05:17:20;;;;;;;;;;;;;;;23.70;59.20;99323.03;2076651;28;20670;-52
2022/05/21 05:18:22;;;;;;;;;;;;;;;23.70;59.17;99321.16;2076186;28;20315;-46
2022/05/21 05:19:23;;;;;;;;;;;;;;;23.69;59.18;99313.28;2077467;28;19999;-46
2022/05/21 05:20:25;;;;;;;;;;;;;;;23.71;59.44;99322.03;2078939;28;20441;-49
2022/05/21 05:21:25;;;;;;;;;;;;;;;23.68;59.56;99315.16;2077842;28;20395;-47
2022/05/21 05:22:27;;;;;;;;;;;;;;;23.70;59.01;99314.94;2079469;28;19968;-48
2022/05/21 05:23:27;;;;;;;;;;;;;;;23.68;59.22;99312.44;2079592;28;20380;-46
2022/05/21 05:24:29;;;;;;;;;;;;;;;23.69;59.04;99311.38;2078700;28;19935;-46
2022/05/21 05:25:30;;;;;;;;;;;;;;;23.71;59.12;99306.63;2079962;28;20382;-46
2022/05/21 05:26:31;;;;;;;;;;;;;;;23.70;58.99;99310.34;2079687;28;19972;-45
2022/05/21 05:27:32;;;;;;;;;;;;;;;23.70;59.20;99304.09;2079389;28;20380;-45
2022/05/21 05:28:34;;;;;;;;;;;;;;;23.69;59.16;99308.69;2078511;28;20048;-47
2022/05/21 05:29:34;;;;;;;;;;;;;;;23.68;59.09;99304.31;2079432;28;19925;-50
2022/05/21 05:30:37;;;;;;;;;;;;;;;23.68;59.36;99307.03;2079754;28;19957;-47